sensor_id;sensor_type;location;lat;lon;timestamp;temperature;humidity
61000;SHT31;46879;45.658;11.814;2023-09-30T00:02:20;24.26;57.94
61000;SHT31;46879;45.658;11.814;2023-09-30T00:07:21;24.26;57.93
61000;SHT31;46879;45.658;11.814;2023-09-30T00:12:22;24.25;57.93
61000;SHT31;46879;45.658;11.814;2023-09-30T00:17:22;24.24;57.92
61000;SHT31;46879;45.658;11.814;2023-09-30T00:22:23;24.25;57.97
61000;SHT31;46879;45.658;11.814;2023-09-30T00:27:23;24.22;57.93
61000;SHT31;46879;45.658;11.814;2023-09-30T00:32:24;24.22;57.85
61000;SHT31;46879;45.658;11.814;2023-09-30T00:37:24;24.22;57.84
61000;SHT31;46879;45.658;11.814;2023-09-30T00:42:25;24.22;57.85
61000;SHT31;46879;45.658;11.814;2023-09-30T00:47:27;24.22;57.85
61000;SHT31;46879;45.658;11.814;2023-09-30T00:52:27;24.19;57.86
61000;SHT31;46879;45.658;11.814;2023-09-30T00:57:30;24.19;57.89
61000;SHT31;46879;45.658;11.814;2023-09-30T01:02:30;24.22;57.81
61000;SHT31;46879;45.658;11.814;2023-09-30T01:07:31;24.22;57.75
61000;SHT31;46879;45.658;11.814;2023-09-30T01:12:32;24.19;57.75
61000;SHT31;46879;45.658;11.814;2023-09-30T01:17:32;24.22;57.77
61000;SHT31;46879;45.658;11.814;2023-09-30T01:22:33;24.21;57.72
61000;SHT31;46879;45.658;11.814;2023-09-30T01:27:33;24.18;57.70
61000;SHT31;46879;45.658;11.814;2023-09-30T01:32:34;24.19;57.74
61000;SHT31;46879;45.658;11.814;2023-09-30T01:37:36;24.18;57.64
61000;SHT31;46879;45.658;11.814;2023-09-30T01:42:37;24.17;57.58
61000;SHT31;46879;45.658;11.814;2023-09-30T01:47:38;24.18;57.59
61000;SHT31;46879;45.658;11.814;2023-09-30T01:52:38;24.18;57.63
61000;SHT31;46879;45.658;11.814;2023-09-30T01:57:39;24.17;57.66
61000;SHT31;46879;45.658;11.814;2023-09-30T02:02:40;24.17;57.72
61000;SHT31;46879;45.658;11.814;2023-09-30T02:07:41;24.15;57.68
61000;SHT31;46879;45.658;11.814;2023-09-30T02:12:42;24.15;57.64
61000;SHT31;46879;45.658;11.814;2023-09-30T02:17:43;24.14;57.61
61000;SHT31;46879;45.658;11.814;2023-09-30T02:22:46;24.14;57.58
61000;SHT31;46879;45.658;11.814;2023-09-30T02:27:49;24.14;57.42
61000;SHT31;46879;45.658;11.814;2023-09-30T02:32:50;24.12;57.37
61000;SHT31;46879;45.658;11.814;2023-09-30T02:37:50;24.09;57.36
61000;SHT31;46879;45.658;11.814;2023-09-30T02:42:52;24.12;57.32
61000;SHT31;46879;45.658;11.814;2023-09-30T02:47:52;24.12;57.21
61000;SHT31;46879;45.658;11.814;2023-09-30T02:52:53;24.09;57.12
61000;SHT31;46879;45.658;11.814;2023-09-30T02:57:54;24.11;57.18
61000;SHT31;46879;45.658;11.814;2023-09-30T03:02:55;24.09;57.20
61000;SHT31;46879;45.658;11.814;2023-09-30T03:07:56;24.11;57.32
61000;SHT31;46879;45.658;11.814;2023-09-30T03:12:57;24.12;57.30
61000;SHT31;46879;45.658;11.814;2023-09-30T03:18:04;24.09;57.23
61000;SHT31;46879;45.658;11.814;2023-09-30T03:23:05;24.11;57.17
61000;SHT31;46879;45.658;11.814;2023-09-30T03:28:06;24.08;57.12
61000;SHT31;46879;45.658;11.814;2023-09-30T03:33:07;24.07;57.08
61000;SHT31;46879;45.658;11.814;2023-09-30T03:38:07;24.08;57.06
61000;SHT31;46879;45.658;11.814;2023-09-30T03:43:10;24.07;57.13
61000;SHT31;46879;45.658;11.814;2023-09-30T03:48:10;24.07;57.02
61000;SHT31;46879;45.658;11.814;2023-09-30T03:53:11;24.05;57.06
61000;SHT31;46879;45.658;11.814;2023-09-30T03:58:12;24.07;57.03
61000;SHT31;46879;45.658;11.814;2023-09-30T04:03:13;24.07;57.07
61000;SHT31;46879;45.658;11.814;2023-09-30T04:08:13;24.05;57.06
61000;SHT31;46879;45.658;11.814;2023-09-30T04:13:15;24.05;57.25
61000;SHT31;46879;45.658;11.814;2023-09-30T04:18:16;24.05;57.26
61000;SHT31;46879;45.658;11.814;2023-09-30T04:23:20;24.04;57.22
61000;SHT31;46879;45.658;11.814;2023-09-30T04:28:22;24.07;57.32
61000;SHT31;46879;45.658;11.814;2023-09-30T04:33:22;24.04;57.39
61000;SHT31;46879;45.658;11.814;2023-09-30T04:38:25;24.02;57.46
61000;SHT31;46879;45.658;11.814;2023-09-30T04:43:26;24.02;57.44
61000;SHT31;46879;45.658;11.814;2023-09-30T04:48:29;24.04;57.47
61000;SHT31;46879;45.658;11.814;2023-09-30T04:53:30;24.02;57.45
61000;SHT31;46879;45.658;11.814;2023-09-30T04:58:31;24.02;57.49
61000;SHT31;46879;45.658;11.814;2023-09-30T05:03:31;24.01;57.48
61000;SHT31;46879;45.658;11.814;2023-09-30T05:08:32;24.02;57.56
61000;SHT31;46879;45.658;11.814;2023-09-30T05:13:32;24.01;57.58
61000;SHT31;46879;45.658;11.814;2023-09-30T05:18:34;24.02;57.69
61000;SHT31;46879;45.658;11.814;2023-09-30T05:23:35;24.00;57.72
61000;SHT31;46879;45.658;11.814;2023-09-30T05:28:36;24.01;57.67
61000;SHT31;46879;45.658;11.814;2023-09-30T05:33:36;23.98;57.69
61000;SHT31;46879;45.658;11.814;2023-09-30T05:38:38;23.98;57.72
61000;SHT31;46879;45.658;11.814;2023-09-30T05:43:38;24.01;57.66
61000;SHT31;46879;45.658;11.814;2023-09-30T05:48:39;24.01;57.64
61000;SHT31;46879;45.658;11.814;2023-09-30T05:53:40;23.98;57.64
61000;SHT31;46879;45.658;11.814;2023-09-30T05:58:42;24.00;57.85
61000;SHT31;46879;45.658;11.814;2023-09-30T06:03:42;24.00;57.99
61000;SHT31;46879;45.658;11.814;2023-09-30T06:08:47;24.01;57.77
61000;SHT31;46879;45.658;11.814;2023-09-30T06:13:47;23.96;57.65
61000;SHT31;46879;45.658;11.814;2023-09-30T06:18:48;23.96;58.08
61000;SHT31;46879;45.658;11.814;2023-09-30T06:23:50;23.96;57.96
61000;SHT31;46879;45.658;11.814;2023-09-30T06:28:54;23.98;58.17
61000;SHT31;46879;45.658;11.814;2023-09-30T06:33:55;23.98;57.65
61000;SHT31;46879;45.658;11.814;2023-09-30T06:38:58;24.00;57.75
61000;SHT31;46879;45.658;11.814;2023-09-30T06:43:59;23.96;57.82
61000;SHT31;46879;45.658;11.814;2023-09-30T06:49:00;23.96;58.04
61000;SHT31;46879;45.658;11.814;2023-09-30T06:54:01;23.97;57.89
61000;SHT31;46879;45.658;11.814;2023-09-30T06:59:01;23.96;57.90
61000;SHT31;46879;45.658;11.814;2023-09-30T07:04:02;23.96;58.03
61000;SHT31;46879;45.658;11.814;2023-09-30T07:09:03;23.94;57.95
61000;SHT31;46879;45.658;11.814;2023-09-30T07:14:04;23.96;57.91
61000;SHT31;46879;45.658;11.814;2023-09-30T07:19:05;23.94;58.00
61000;SHT31;46879;45.658;11.814;2023-09-30T07:24:06;23.96;57.86
61000;SHT31;46879;45.658;11.814;2023-09-30T07:29:07;23.94;57.82
61000;SHT31;46879;45.658;11.814;2023-09-30T07:34:08;23.93;57.95
61000;SHT31;46879;45.658;11.814;2023-09-30T07:39:09;23.94;57.85
61000;SHT31;46879;45.658;11.814;2023-09-30T07:44:10;23.93;57.94
61000;SHT31;46879;45.658;11.814;2023-09-30T07:49:11;23.96;58.24
61000;SHT31;46879;45.658;11.814;2023-09-30T07:54:11;23.91;58.17
61000;SHT31;46879;45.658;11.814;2023-09-30T07:59:12;23.93;58.08
61000;SHT31;46879;45.658;11.814;2023-09-30T08:04:14;23.91;57.99
61000;SHT31;46879;45.658;11.814;2023-09-30T08:09:15;23.91;58.08
61000;SHT31;46879;45.658;11.814;2023-09-30T08:14:16;23.84;58.30
61000;SHT31;46879;45.658;11.814;2023-09-30T08:19:16;23.93;58.23
61000;SHT31;46879;45.658;11.814;2023-09-30T08:24:17;23.84;57.54
61000;SHT31;46879;45.658;11.814;2023-09-30T08:29:18;23.83;57.57
61000;SHT31;46879;45.658;11.814;2023-09-30T08:34:18;23.90;57.86
61000;SHT31;46879;45.658;11.814;2023-09-30T08:39:21;23.90;58.03
61000;SHT31;46879;45.658;11.814;2023-09-30T08:44:22;23.93;57.96
61000;SHT31;46879;45.658;11.814;2023-09-30T08:49:24;23.94;57.89
61000;SHT31;46879;45.658;11.814;2023-09-30T08:54:26;23.96;57.39
61000;SHT31;46879;45.658;11.814;2023-09-30T08:59:27;23.96;57.65
61000;SHT31;46879;45.658;11.814;2023-09-30T09:04:28;23.96;56.09
61000;SHT31;46879;45.658;11.814;2023-09-30T09:09:29;23.98;55.91
61000;SHT31;46879;45.658;11.814;2023-09-30T09:14:39;23.97;56.99
61000;SHT31;46879;45.658;11.814;2023-09-30T09:19:41;23.98;56.90
61000;SHT31;46879;45.658;11.814;2023-09-30T09:24:41;24.04;57.10
61000;SHT31;46879;45.658;11.814;2023-09-30T09:29:43;24.01;57.17
61000;SHT31;46879;45.658;11.814;2023-09-30T09:34:45;24.01;57.15
61000;SHT31;46879;45.658;11.814;2023-09-30T09:39:59;24.04;57.31
61000;SHT31;46879;45.658;11.814;2023-09-30T09:45:03;24.01;57.26
61000;SHT31;46879;45.658;11.814;2023-09-30T09:50:05;24.09;56.47
61000;SHT31;46879;45.658;11.814;2023-09-30T09:55:07;24.08;56.85
61000;SHT31;46879;45.658;11.814;2023-09-30T10:00:12;24.11;56.43
61000;SHT31;46879;45.658;11.814;2023-09-30T10:05:15;24.12;56.22
61000;SHT31;46879;45.658;11.814;2023-09-30T10:10:19;24.12;56.81
61000;SHT31;46879;45.658;11.814;2023-09-30T10:20:29;24.14;57.17
61000;SHT31;46879;45.658;11.814;2023-09-30T10:25:38;24.19;57.46
61000;SHT31;46879;45.658;11.814;2023-09-30T10:31:16;24.18;57.52
61000;SHT31;46879;45.658;11.814;2023-09-30T10:46:46;24.21;57.83
61000;SHT31;46879;45.658;11.814;2023-09-30T10:51:46;24.19;57.85
61000;SHT31;46879;45.658;11.814;2023-09-30T10:56:48;24.19;57.91
61000;SHT31;46879;45.658;11.814;2023-09-30T11:01:50;24.26;57.79
61000;SHT31;46879;45.658;11.814;2023-09-30T11:06:50;24.22;57.86
61000;SHT31;46879;45.658;11.814;2023-09-30T11:11:53;24.24;57.90
61000;SHT31;46879;45.658;11.814;2023-09-30T11:16:56;24.25;57.77
61000;SHT31;46879;45.658;11.814;2023-09-30T11:21:57;24.26;57.46
61000;SHT31;46879;45.658;11.814;2023-09-30T11:27:01;24.35;56.70
61000;SHT31;46879;45.658;11.814;2023-09-30T11:32:02;24.30;56.81
61000;SHT31;46879;45.658;11.814;2023-09-30T11:37:03;24.33;56.87
61000;SHT31;46879;45.658;11.814;2023-09-30T11:42:15;24.33;56.76
61000;SHT31;46879;45.658;11.814;2023-09-30T11:47:28;24.33;57.08
61000;SHT31;46879;45.658;11.814;2023-09-30T11:52:30;24.29;57.51
61000;SHT31;46879;45.658;11.814;2023-09-30T11:57:31;24.30;57.35
61000;SHT31;46879;45.658;11.814;2023-09-30T12:02:31;24.32;57.02
61000;SHT31;46879;45.658;11.814;2023-09-30T12:07:32;24.36;56.16
61000;SHT31;46879;45.658;11.814;2023-09-30T12:12:33;24.33;56.48
61000;SHT31;46879;45.658;11.814;2023-09-30T12:17:34;24.35;56.62
61000;SHT31;46879;45.658;11.814;2023-09-30T12:22:35;24.36;56.48
61000;SHT31;46879;45.658;11.814;2023-09-30T12:27:37;24.36;56.37
61000;SHT31;46879;45.658;11.814;2023-09-30T12:32:40;24.36;56.47
61000;SHT31;46879;45.658;11.814;2023-09-30T12:37:41;24.36;56.59
61000;SHT31;46879;45.658;11.814;2023-09-30T12:42:44;24.38;56.63
61000;SHT31;46879;45.658;11.814;2023-09-30T12:47:45;24.38;56.81
61000;SHT31;46879;45.658;11.814;2023-09-30T12:52:47;24.39;56.82
61000;SHT31;46879;45.658;11.814;2023-09-30T12:57:48;24.38;56.94
61000;SHT31;46879;45.658;11.814;2023-09-30T13:02:48;24.42;56.94
61000;SHT31;46879;45.658;11.814;2023-09-30T13:07:49;24.39;56.81
61000;SHT31;46879;45.658;11.814;2023-09-30T13:12:50;24.42;56.50
61000;SHT31;46879;45.658;11.814;2023-09-30T13:17:50;24.43;56.28
61000;SHT31;46879;45.658;11.814;2023-09-30T13:22:51;24.45;56.12
61000;SHT31;46879;45.658;11.814;2023-09-30T13:27:52;24.43;56.06
61000;SHT31;46879;45.658;11.814;2023-09-30T13:32:52;24.46;56.08
61000;SHT31;46879;45.658;11.814;2023-09-30T13:37:53;24.46;55.92
61000;SHT31;46879;45.658;11.814;2023-09-30T13:42:53;24.48;55.97
61000;SHT31;46879;45.658;11.814;2023-09-30T13:47:54;24.46;56.10
61000;SHT31;46879;45.658;11.814;2023-09-30T13:52:55;24.48;56.11
61000;SHT31;46879;45.658;11.814;2023-09-30T13:57:55;24.46;56.24
61000;SHT31;46879;45.658;11.814;2023-09-30T14:02:56;24.48;56.23
61000;SHT31;46879;45.658;11.814;2023-09-30T14:07:56;24.46;56.28
61000;SHT31;46879;45.658;11.814;2023-09-30T14:12:58;24.46;56.24
61000;SHT31;46879;45.658;11.814;2023-09-30T14:17:58;24.45;56.10
61000;SHT31;46879;45.658;11.814;2023-09-30T14:22:59;24.48;55.68
61000;SHT31;46879;45.658;11.814;2023-09-30T14:28:00;24.45;55.77
61000;SHT31;46879;45.658;11.814;2023-09-30T14:33:01;24.48;55.54
61000;SHT31;46879;45.658;11.814;2023-09-30T14:38:04;24.53;55.62
61000;SHT31;46879;45.658;11.814;2023-09-30T14:43:05;24.57;56.71
61000;SHT31;46879;45.658;11.814;2023-09-30T14:48:07;24.57;57.13
61000;SHT31;46879;45.658;11.814;2023-09-30T14:53:08;24.59;57.09
61000;SHT31;46879;45.658;11.814;2023-09-30T14:58:10;24.56;56.97
61000;SHT31;46879;45.658;11.814;2023-09-30T15:03:10;24.55;56.79
61000;SHT31;46879;45.658;11.814;2023-09-30T15:08:11;24.57;57.58
61000;SHT31;46879;45.658;11.814;2023-09-30T15:13:11;24.57;57.00
61000;SHT31;46879;45.658;11.814;2023-09-30T15:18:12;24.56;57.04
61000;SHT31;46879;45.658;11.814;2023-09-30T15:23:13;24.57;56.88
61000;SHT31;46879;45.658;11.814;2023-09-30T15:28:14;24.53;56.92
61000;SHT31;46879;45.658;11.814;2023-09-30T15:33:14;24.53;56.94
61000;SHT31;46879;45.658;11.814;2023-09-30T15:38:15;24.51;56.88
61000;SHT31;46879;45.658;11.814;2023-09-30T15:43:16;24.51;56.89
61000;SHT31;46879;45.658;11.814;2023-09-30T15:48:16;24.51;56.85
61000;SHT31;46879;45.658;11.814;2023-09-30T15:53:17;24.51;56.92
61000;SHT31;46879;45.658;11.814;2023-09-30T15:58:19;24.48;57.02
61000;SHT31;46879;45.658;11.814;2023-09-30T16:03:19;24.48;57.05
61000;SHT31;46879;45.658;11.814;2023-09-30T16:08:20;24.46;57.13
61000;SHT31;46879;45.658;11.814;2023-09-30T16:13:20;24.48;57.13
61000;SHT31;46879;45.658;11.814;2023-09-30T16:18:21;24.46;57.14
61000;SHT31;46879;45.658;11.814;2023-09-30T16:23:22;24.48;57.20
61000;SHT31;46879;45.658;11.814;2023-09-30T16:28:22;24.45;57.21
61000;SHT31;46879;45.658;11.814;2023-09-30T16:33:23;24.46;57.23
61000;SHT31;46879;45.658;11.814;2023-09-30T16:38:25;24.46;57.31
61000;SHT31;46879;45.658;11.814;2023-09-30T16:43:26;24.45;57.36
61000;SHT31;46879;45.658;11.814;2023-09-30T16:48:26;24.42;57.39
61000;SHT31;46879;45.658;11.814;2023-09-30T16:53:27;24.45;57.45
61000;SHT31;46879;45.658;11.814;2023-09-30T16:58:28;24.43;57.49
61000;SHT31;46879;45.658;11.814;2023-09-30T17:03:29;24.42;57.52
61000;SHT31;46879;45.658;11.814;2023-09-30T17:08:29;24.43;57.53
61000;SHT31;46879;45.658;11.814;2023-09-30T17:13:30;24.40;57.57
61000;SHT31;46879;45.658;11.814;2023-09-30T17:18:31;24.42;57.56
61000;SHT31;46879;45.658;11.814;2023-09-30T17:23:31;24.42;57.61
61000;SHT31;46879;45.658;11.814;2023-09-30T17:28:32;24.42;57.71
61000;SHT31;46879;45.658;11.814;2023-09-30T17:33:34;24.40;57.76
61000;SHT31;46879;45.658;11.814;2023-09-30T17:38:38;24.40;57.95
61000;SHT31;46879;45.658;11.814;2023-09-30T17:43:39;24.40;58.07
61000;SHT31;46879;45.658;11.814;2023-09-30T17:48:40;24.42;58.38
61000;SHT31;46879;45.658;11.814;2023-09-30T17:53:50;24.43;60.54
61000;SHT31;46879;45.658;11.814;2023-09-30T17:58:51;24.42;59.63
61000;SHT31;46879;45.658;11.814;2023-09-30T18:03:53;24.42;59.46
61000;SHT31;46879;45.658;11.814;2023-09-30T18:08:54;24.40;59.10
61000;SHT31;46879;45.658;11.814;2023-09-30T18:13:55;24.40;58.98
61000;SHT31;46879;45.658;11.814;2023-09-30T18:18:55;24.39;58.87
61000;SHT31;46879;45.658;11.814;2023-09-30T18:23:56;24.40;58.90
61000;SHT31;46879;45.658;11.814;2023-09-30T18:28:57;24.40;58.87
61000;SHT31;46879;45.658;11.814;2023-09-30T18:33:57;24.39;58.97
61000;SHT31;46879;45.658;11.814;2023-09-30T18:38:58;24.39;59.04
61000;SHT31;46879;45.658;11.814;2023-09-30T18:43:58;24.42;59.08
61000;SHT31;46879;45.658;11.814;2023-09-30T18:48:59;24.38;59.20
61000;SHT31;46879;45.658;11.814;2023-09-30T18:54:00;24.38;59.29
61000;SHT31;46879;45.658;11.814;2023-09-30T18:59:01;24.39;59.36
61000;SHT31;46879;45.658;11.814;2023-09-30T19:04:02;24.38;59.54
61000;SHT31;46879;45.658;11.814;2023-09-30T19:09:03;24.39;59.74
61000;SHT31;46879;45.658;11.814;2023-09-30T19:14:04;24.39;59.73
61000;SHT31;46879;45.658;11.814;2023-09-30T19:19:07;24.39;59.64
61000;SHT31;46879;45.658;11.814;2023-09-30T19:24:08;24.43;60.44
61000;SHT31;46879;45.658;11.814;2023-09-30T19:29:11;24.42;60.74
61000;SHT31;46879;45.658;11.814;2023-09-30T19:34:12;24.39;60.87
61000;SHT31;46879;45.658;11.814;2023-09-30T19:39:15;24.39;60.40
61000;SHT31;46879;45.658;11.814;2023-09-30T19:44:15;24.38;60.16
61000;SHT31;46879;45.658;11.814;2023-09-30T19:49:16;24.38;60.24
61000;SHT31;46879;45.658;11.814;2023-09-30T19:54:16;24.40;60.21
61000;SHT31;46879;45.658;11.814;2023-09-30T19:59:17;24.39;60.27
61000;SHT31;46879;45.658;11.814;2023-09-30T20:04:18;24.39;60.30
61000;SHT31;46879;45.658;11.814;2023-09-30T20:09:21;24.39;60.08
61000;SHT31;46879;45.658;11.814;2023-09-30T20:14:26;24.39;60.32
61000;SHT31;46879;45.658;11.814;2023-09-30T20:19:27;24.36;60.46
61000;SHT31;46879;45.658;11.814;2023-09-30T20:24:27;24.39;60.48
61000;SHT31;46879;45.658;11.814;2023-09-30T20:29:28;24.39;60.51
61000;SHT31;46879;45.658;11.814;2023-09-30T20:34:29;24.39;60.46
61000;SHT31;46879;45.658;11.814;2023-09-30T20:39:29;24.38;60.50
61000;SHT31;46879;45.658;11.814;2023-09-30T20:44:30;24.38;60.46
61000;SHT31;46879;45.658;11.814;2023-09-30T20:49:31;24.38;60.45
61000;SHT31;46879;45.658;11.814;2023-09-30T20:54:32;24.36;60.54
61000;SHT31;46879;45.658;11.814;2023-09-30T20:59:34;24.38;60.49
61000;SHT31;46879;45.658;11.814;2023-09-30T21:04:35;24.35;60.37
61000;SHT31;46879;45.658;11.814;2023-09-30T21:09:37;24.35;60.42
61000;SHT31;46879;45.658;11.814;2023-09-30T21:14:38;24.36;60.44
61000;SHT31;46879;45.658;11.814;2023-09-30T21:19:39;24.36;60.43
61000;SHT31;46879;45.658;11.814;2023-09-30T21:24:39;24.36;60.36
61000;SHT31;46879;45.658;11.814;2023-09-30T21:29:40;24.35;60.37
61000;SHT31;46879;45.658;11.814;2023-09-30T21:34:41;24.36;60.37
61000;SHT31;46879;45.658;11.814;2023-09-30T21:39:41;24.36;60.38
61000;SHT31;46879;45.658;11.814;2023-09-30T21:44:42;24.36;60.33
61000;SHT31;46879;45.658;11.814;2023-09-30T21:49:44;24.38;60.57
61000;SHT31;46879;45.658;11.814;2023-09-30T21:54:45;24.36;60.67
61000;SHT31;46879;45.658;11.814;2023-09-30T21:59:46;24.38;60.75
61000;SHT31;46879;45.658;11.814;2023-09-30T22:04:47;24.36;60.74
61000;SHT31;46879;45.658;11.814;2023-09-30T22:09:48;24.36;60.63
61000;SHT31;46879;45.658;11.814;2023-09-30T22:14:50;24.35;60.57
61000;SHT31;46879;45.658;11.814;2023-09-30T22:19:51;24.33;60.56
61000;SHT31;46879;45.658;11.814;2023-09-30T22:24:52;24.36;60.61
61000;SHT31;46879;45.658;11.814;2023-09-30T22:29:54;24.38;60.65
61000;SHT31;46879;45.658;11.814;2023-09-30T22:34:55;24.36;60.66
61000;SHT31;46879;45.658;11.814;2023-09-30T22:39:55;24.36;60.83
61000;SHT31;46879;45.658;11.814;2023-09-30T22:44:56;24.36;60.81
61000;SHT31;46879;45.658;11.814;2023-09-30T22:49:57;24.36;60.93
61000;SHT31;46879;45.658;11.814;2023-09-30T22:54:57;24.39;60.87
61000;SHT31;46879;45.658;11.814;2023-09-30T22:59:58;24.36;60.73
61000;SHT31;46879;45.658;11.814;2023-09-30T23:05:03;24.36;60.62
61000;SHT31;46879;45.658;11.814;2023-09-30T23:10:04;24.36;60.70
61000;SHT31;46879;45.658;11.814;2023-09-30T23:15:16;24.38;60.60
61000;SHT31;46879;45.658;11.814;2023-09-30T23:20:20;24.38;60.67
61000;SHT31;46879;45.658;11.814;2023-09-30T23:25:23;24.38;60.53
61000;SHT31;46879;45.658;11.814;2023-09-30T23:30:27;24.38;60.55
61000;SHT31;46879;45.658;11.814;2023-09-30T23:35:29;24.36;60.54
61000;SHT31;46879;45.658;11.814;2023-09-30T23:40:31;24.35;60.60
61000;SHT31;46879;45.658;11.814;2023-09-30T23:45:33;24.35;60.55
61000;SHT31;46879;45.658;11.814;2023-09-30T23:50:37;24.38;60.51
61000;SHT31;46879;45.658;11.814;2023-09-30T23:55:38;24.39;60.65
